Time;durP1;ratioP1;P1;durP2;ratioP2;P2;SDS_P1;SDS_P2;PMS_P1;PMS_P2;Temp;Humidity;BMP_temperature;BMP_pressure;BME280_temperature;BME280_humidity;BME280_pressure;Samples;Min_cycle;Max_cycle;Signal;HPM_P1;HPM_P2
2022/02/11 00:05:32;;;;;;;66.32;9.38;;;;;;;;;;5029518;28;20220;-72
2022/02/11 00:07:59;;;;;;;68.00;9.65;;;;;;;;;;5029317;28;20253;-72
2022/02/11 00:10:27;;;;;;;71.22;11.13;;;;;;;;;;5029551;28;20240;-72
2022/02/11 00:12:54;;;;;;;69.72;10.60;;;;;;;;;;5029433;28;20599;-70
2022/02/11 00:18:09;;;;;;;70.03;8.95;;;;;;;;;;5029154;28;20223;-72
2022/02/11 00:20:37;;;;;;;65.03;8.60;;;;;;;;;;5029396;28;20234;-72
2022/02/11 00:23:06;;;;;;;66.85;9.20;;;;;;;;;;5029161;28;20293;-72
2022/02/11 00:25:35;;;;;;;64.95;8.93;;;;;;;;;;5029457;28;20265;-72
2022/02/11 00:31:22;;;;;;;69.80;9.52;;;;;;;;;;5109834;27;20567;-71
2022/02/11 00:33:52;;;;;;;66.18;9.32;;;;;;;;;;5109710;28;20318;-71
2022/02/11 00:36:24;;;;;;;67.30;9.02;;;;;;;;;;5109842;28;20238;-72
2022/02/11 00:39:06;;;;;;;66.22;8.20;;;;;;;;;;5109388;28;20196;-72
2022/02/11 01:03:57;;;;;;;63.22;6.97;;;;;;;;;;5109091;28;20269;-72
2022/02/11 01:06:24;;;;;;;63.55;7.13;;;;;;;;;;5109049;28;20204;-72
2022/02/11 01:08:52;;;;;;;64.07;7.20;;;;;;;;;;5109141;28;20627;-72
2022/02/11 01:11:24;;;;;;;64.45;6.90;;;;;;;;;;5108917;28;20664;-72
2022/02/11 01:13:51;;;;;;;72.38;7.68;;;;;;;;;;5109190;28;20228;-72
2022/02/11 01:16:24;;;;;;;64.85;7.55;;;;;;;;;;5108875;28;20743;-72
2022/02/11 01:19:00;;;;;;;66.85;7.40;;;;;;;;;;5108631;28;20691;-72
2022/02/11 01:21:36;;;;;;;65.50;7.63;;;;;;;;;;5108696;28;20594;-71
2022/02/11 01:24:14;;;;;;;65.68;7.38;;;;;;;;;;5108817;28;20228;-72
2022/02/11 01:26:50;;;;;;;67.30;7.18;;;;;;;;;;5108829;28;20208;-72
2022/02/11 01:29:48;;;;;;;63.60;6.60;;;;;;;;;;5108281;28;20330;-72
2022/02/11 01:32:29;;;;;;;66.50;8.00;;;;;;;;;;5108422;28;20205;-72
2022/02/11 01:35:08;;;;;;;63.80;7.45;;;;;;;;;;5108719;28;20239;-72
2022/02/11 01:37:46;;;;;;;67.85;7.85;;;;;;;;;;5108270;28;20207;-73
2022/02/11 01:46:18;;;;;;;62.53;6.63;;;;;;;;;;5094855;28;20204;-72
2022/02/11 01:51:48;;;;;;;64.03;6.93;;;;;;;;;;5089175;28;20201;-71
2022/02/11 01:54:31;;;;;;;61.92;6.25;;;;;;;;;;5094558;28;20224;-71
2022/02/11 01:57:04;;;;;;;63.22;6.68;;;;;;;;;;5094502;28;20227;-72
2022/02/11 02:13:38;;;;;;;61.42;5.35;;;;;;;;;;5094096;28;20200;-72
2022/02/11 02:24:33;;;;;;;62.92;5.22;;;;;;;;;;5093351;28;20680;-71
2022/02/11 02:27:24;;;;;;;64.93;6.30;;;;;;;;;;5093751;28;20200;-71
2022/02/11 02:30:51;;;;;;;61.30;5.57;;;;;;;;;;5093828;28;20598;-71
2022/02/11 02:36:20;;;;;;;63.50;6.20;;;;;;;;;;5093831;28;20211;-71
2022/02/11 02:39:17;;;;;;;62.83;6.00;;;;;;;;;;5093407;28;20702;-72
2022/02/11 02:50:15;;;;;;;62.65;5.65;;;;;;;;;;5093445;28;20231;-71
2022/02/11 02:58:16;;;;;;;61.38;5.65;;;;;;;;;;5093066;28;20200;-71
2022/02/11 03:31:41;;;;;;;60.60;4.90;;;;;;;;;;5092842;28;20315;-72
2022/02/11 03:51:21;;;;;;;62.05;5.35;;;;;;;;;;5092388;28;20589;-71
2022/02/11 04:08:16;;;;;;;60.30;4.50;;;;;;;;;;5091700;28;20196;-71
2022/02/11 04:56:57;;;;;;;60.13;4.65;;;;;;;;;;5091742;28;20279;-71
2022/02/11 04:59:37;;;;;;;60.17;4.70;;;;;;;;;;5091986;28;20290;-71
2022/02/11 05:02:05;;;;;;;60.28;5.30;;;;;;;;;;5091676;28;20200;-71
2022/02/11 05:04:32;;;;;;;63.15;7.00;;;;;;;;;;5091419;28;20255;-71
2022/02/11 05:07:00;;;;;;;61.60;6.03;;;;;;;;;;5091561;28;20207;-71
2022/02/11 05:09:28;;;;;;;62.03;6.05;;;;;;;;;;5091088;28;20219;-71
2022/02/11 05:11:56;;;;;;;60.75;5.60;;;;;;;;;;5091494;28;20724;-71
2022/02/11 05:14:23;;;;;;;62.22;6.43;;;;;;;;;;5091642;28;20597;-71
2022/02/11 05:16:50;;;;;;;62.72;6.40;;;;;;;;;;5093891;28;20208;-71
2022/02/11 05:19:17;;;;;;;62.75;7.30;;;;;;;;;;5095131;28;20204;-71
2022/02/11 05:21:45;;;;;;;62.72;6.97;;;;;;;;;;5095257;28;20299;-71
2022/02/11 05:24:12;;;;;;;63.88;6.22;;;;;;;;;;5094999;28;20322;-72
2022/02/11 05:26:39;;;;;;;62.10;6.70;;;;;;;;;;5095155;28;20299;-72
2022/02/11 05:29:07;;;;;;;63.95;6.85;;;;;;;;;;5094822;28;20247;-72
2022/02/11 05:31:35;;;;;;;63.67;6.55;;;;;;;;;;5094907;28;20228;-72
2022/02/11 05:34:02;;;;;;;64.93;7.55;;;;;;;;;;5095079;28;20220;-72
2022/02/11 05:36:29;;;;;;;63.25;7.68;;;;;;;;;;5095076;28;20298;-71
2022/02/11 05:38:56;;;;;;;62.88;7.43;;;;;;;;;;5094609;28;20692;-72
2022/02/11 05:41:23;;;;;;;65.10;6.93;;;;;;;;;;5095096;28;20196;-72
2022/02/11 05:43:50;;;;;;;62.35;6.88;;;;;;;;;;5094885;28;20227;-72
2022/02/11 05:46:20;;;;;;;63.30;7.10;;;;;;;;;;5095205;28;20323;-72
2022/02/11 05:48:47;;;;;;;63.25;7.13;;;;;;;;;;5094661;28;20633;-71
2022/02/11 05:51:15;;;;;;;64.60;7.80;;;;;;;;;;5094408;28;20316;-71
2022/02/11 05:53:42;;;;;;;65.22;8.32;;;;;;;;;;5094820;28;20572;-71
2022/02/11 05:56:09;;;;;;;65.07;8.20;;;;;;;;;;5094963;28;20204;-71
2022/02/11 05:58:37;;;;;;;64.00;7.95;;;;;;;;;;5094298;28;20602;-71
2022/02/11 06:01:04;;;;;;;66.03;8.45;;;;;;;;;;5094620;28;20201;-71
2022/02/11 06:03:33;;;;;;;65.05;8.25;;;;;;;;;;5094498;28;20228;-71
2022/02/11 06:06:00;;;;;;;68.78;8.18;;;;;;;;;;5094792;28;20298;-70
2022/02/11 06:08:27;;;;;;;66.50;7.97;;;;;;;;;;5094323;28;20200;-72
2022/02/11 06:10:54;;;;;;;63.17;7.65;;;;;;;;;;5094529;28;20451;-72
2022/02/11 06:13:22;;;;;;;65.70;7.25;;;;;;;;;;5094184;28;20232;-72
2022/02/11 06:15:49;;;;;;;63.70;7.10;;;;;;;;;;5094314;28;20214;-72
2022/02/11 06:18:17;;;;;;;64.18;8.18;;;;;;;;;;5093781;28;20204;-72
2022/02/11 06:20:45;;;;;;;64.85;7.57;;;;;;;;;;5094228;28;20295;-72
2022/02/11 06:23:12;;;;;;;64.35;7.40;;;;;;;;;;5094113;28;20299;-73
2022/02/11 06:25:39;;;;;;;62.35;6.30;;;;;;;;;;5093917;28;20304;-72
2022/02/11 06:28:06;;;;;;;64.47;7.35;;;;;;;;;;5093718;28;20205;-72
2022/02/11 06:30:34;;;;;;;66.75;7.00;;;;;;;;;;5093865;28;20259;-72
2022/02/11 06:33:01;;;;;;;62.53;6.45;;;;;;;;;;5093809;28;20756;-71
2022/02/11 06:35:31;;;;;;;63.25;6.43;;;;;;;;;;5093462;28;20210;-70
2022/02/11 06:38:00;;;;;;;61.55;5.85;;;;;;;;;;5093715;28;20204;-71
2022/02/11 06:40:29;;;;;;;64.47;7.07;;;;;;;;;;5093714;28;20681;-71
2022/02/11 06:42:56;;;;;;;65.65;6.93;;;;;;;;;;5093655;28;20274;-71
2022/02/11 06:45:23;;;;;;;62.88;6.70;;;;;;;;;;5093627;28;20209;-71
2022/02/11 06:47:50;;;;;;;61.78;5.95;;;;;;;;;;5093327;28;20211;-71
2022/02/11 06:50:18;;;;;;;63.55;7.00;;;;;;;;;;5093477;28;20220;-71
2022/02/11 06:52:45;;;;;;;63.78;6.63;;;;;;;;;;5093623;28;20205;-71
2022/02/11 06:55:14;;;;;;;67.65;7.25;;;;;;;;;;5093543;28;20220;-71
2022/02/11 06:57:42;;;;;;;64.15;7.65;;;;;;;;;;5093204;28;20215;-71
2022/02/11 07:00:12;;;;;;;63.20;6.10;;;;;;;;;;5093376;28;20636;-71
2022/02/11 07:02:40;;;;;;;66.68;6.43;;;;;;;;;;5093494;28;20598;-71
2022/02/11 07:05:07;;;;;;;63.00;6.20;;;;;;;;;;5093386;28;20250;-71
2022/02/11 07:07:34;;;;;;;63.28;6.93;;;;;;;;;;5092886;28;20723;-71
2022/02/11 07:10:01;;;;;;;63.95;6.95;;;;;;;;;;5093063;28;20299;-71
2022/02/11 07:12:30;;;;;;;62.78;7.00;;;;;;;;;;5093077;28;20215;-71
2022/02/11 07:14:57;;;;;;;63.28;6.85;;;;;;;;;;5093281;28;20224;-71
2022/02/11 07:17:24;;;;;;;63.40;6.78;;;;;;;;;;5092914;28;20466;-72
2022/02/11 07:19:51;;;;;;;64.47;7.03;;;;;;;;;;5093053;28;20291;-70
2022/02/11 07:22:18;;;;;;;66.00;9.00;;;;;;;;;;5092851;28;20212;-71
2022/02/11 07:24:47;;;;;;;63.45;7.78;;;;;;;;;;5092809;28;20320;-71
2022/02/11 07:27:15;;;;;;;66.65;7.78;;;;;;;;;;5092933;28;20208;-72
2022/02/11 07:29:43;;;;;;;66.35;7.70;;;;;;;;;;5092905;28;20226;-71
2022/02/11 07:32:11;;;;;;;65.55;7.63;;;;;;;;;;5093017;28;20315;-72
2022/02/11 07:34:38;;;;;;;67.00;7.75;;;;;;;;;;5092709;28;20235;-72
2022/02/11 07:37:05;;;;;;;68.15;7.95;;;;;;;;;;5092534;28;20219;-72
2022/02/11 07:39:33;;;;;;;66.65;8.13;;;;;;;;;;5092523;28;20204;-72
2022/02/11 07:42:00;;;;;;;64.25;6.80;;;;;;;;;;5093125;28;20207;-72
2022/02/11 07:44:27;;;;;;;65.60;7.07;;;;;;;;;;5092538;28;20712;-72
2022/02/11 07:46:55;;;;;;;64.13;6.43;;;;;;;;;;5092841;28;20215;-72
2022/02/11 07:49:22;;;;;;;68.50;8.20;;;;;;;;;;5092436;28;20208;-72
2022/02/11 07:51:49;;;;;;;64.95;7.60;;;;;;;;;;5092603;28;20318;-72
2022/02/11 07:54:17;;;;;;;68.85;6.80;;;;;;;;;;5092473;28;20234;-72
2022/02/11 07:56:44;;;;;;;67.20;6.72;;;;;;;;;;5109417;28;20211;-72
2022/02/11 07:59:11;;;;;;;64.97;7.25;;;;;;;;;;5115271;28;20191;-72
2022/02/11 08:01:38;;;;;;;65.82;7.53;;;;;;;;;;5115426;28;20260;-72
2022/02/11 08:04:07;;;;;;;62.10;6.70;;;;;;;;;;5115238;28;20228;-72
2022/02/11 08:06:34;;;;;;;62.30;6.93;;;;;;;;;;5115231;28;20208;-72
2022/02/11 08:09:01;;;;;;;61.08;5.88;;;;;;;;;;5114985;28;20184;-72
2022/02/11 08:11:28;;;;;;;66.00;6.53;;;;;;;;;;5099379;28;20314;-72
2022/02/11 08:13:55;;;;;;;62.40;5.95;;;;;;;;;;5092157;28;20315;-72
2022/02/11 08:16:22;;;;;;;62.70;6.20;;;;;;;;;;5092645;28;20204;-72
2022/02/11 08:18:49;;;;;;;62.58;6.13;;;;;;;;;;5092192;28;20648;-72
2022/02/11 08:21:19;;;;;;;62.53;6.93;;;;;;;;;;5091891;28;20295;-72
2022/02/11 08:23:46;;;;;;;61.53;6.05;;;;;;;;;;5091997;28;20285;-72
2022/02/11 08:26:14;;;;;;;61.40;5.78;;;;;;;;;;5092061;28;20235;-72
2022/02/11 08:28:41;;;;;;;62.35;6.75;;;;;;;;;;5091568;28;20208;-72
2022/02/11 08:31:08;;;;;;;63.83;6.72;;;;;;;;;;5091842;28;20315;-72
2022/02/11 08:33:36;;;;;;;62.47;6.47;;;;;;;;;;5091610;28;20310;-72
2022/02/11 08:36:03;;;;;;;61.58;5.20;;;;;;;;;;5091702;28;20295;-72
2022/02/11 08:38:31;;;;;;;61.65;5.70;;;;;;;;;;5091506;28;20214;-72
2022/02/11 08:40:59;;;;;;;62.58;6.07;;;;;;;;;;5092049;28;20204;-72
2022/02/11 08:43:27;;;;;;;61.92;5.40;;;;;;;;;;5091709;28;20247;-72
2022/02/11 08:45:54;;;;;;;61.80;5.38;;;;;;;;;;5091746;28;20775;-72
2022/02/11 08:48:21;;;;;;;64.05;5.65;;;;;;;;;;5091247;28;20243;-72
2022/02/11 08:50:48;;;;;;;62.22;4.80;;;;;;;;;;5092611;28;20373;-72
2022/02/11 08:53:17;;;;;;;66.80;5.40;;;;;;;;;;5095735;28;20204;-72
2022/02/11 08:55:45;;;;;;;61.90;4.65;;;;;;;;;;5095738;28;20203;-72
2022/02/11 08:58:13;;;;;;;62.17;4.88;;;;;;;;;;5095496;28;20204;-72
2022/02/11 09:00:40;;;;;;;73.72;5.45;;;;;;;;;;5095684;28;20200;-72
2022/02/11 09:03:07;;;;;;;60.60;5.10;;;;;;;;;;5095304;28;20711;-72
2022/02/11 09:05:34;;;;;;;63.38;5.72;;;;;;;;;;5095873;28;20204;-72
2022/02/11 09:08:02;;;;;;;63.15;5.13;;;;;;;;;;5095255;28;20287;-72
2022/02/11 09:10:30;;;;;;;62.92;5.35;;;;;;;;;;5095447;28;20289;-72
2022/02/11 09:12:59;;;;;;;67.13;5.40;;;;;;;;;;5095332;28;20291;-72
2022/02/11 09:15:27;;;;;;;64.20;4.30;;;;;;;;;;5095303;28;20204;-72
2022/02/11 09:17:55;;;;;;;64.30;5.32;;;;;;;;;;5095289;28;20210;-72
2022/02/11 09:20:23;;;;;;;64.13;5.43;;;;;;;;;;5095432;28;20211;-72
2022/02/11 09:22:51;;;;;;;60.10;4.40;;;;;;;;;;5095280;28;20206;-72
2022/02/11 09:25:19;;;;;;;63.45;5.03;;;;;;;;;;5095054;28;20235;-72
2022/02/11 09:27:46;;;;;;;61.28;4.60;;;;;;;;;;5094709;28;20706;-72
2022/02/11 09:30:16;;;;;;;64.05;5.00;;;;;;;;;;5095141;28;20323;-72
2022/02/11 09:32:43;;;;;;;60.03;4.75;;;;;;;;;;5094963;28;20239;-72
2022/02/11 09:35:11;;;;;;;62.10;4.65;;;;;;;;;;5095007;28;20259;-72
2022/02/11 09:37:38;;;;;;;62.30;4.78;;;;;;;;;;5094622;28;20681;-72
2022/02/11 09:40:06;;;;;;;60.72;5.00;;;;;;;;;;5095020;28;20313;-72
2022/02/11 09:42:34;;;;;;;63.70;4.85;;;;;;;;;;5094753;28;20220;-72
2022/02/11 09:45:01;;;;;;;60.10;4.25;;;;;;;;;;5094668;28;20224;-72
2022/02/11 09:47:30;;;;;;;61.15;5.20;;;;;;;;;;5094428;28;20206;-72
2022/02/11 09:49:57;;;;;;;62.15;4.90;;;;;;;;;;5095059;28;20204;-72
2022/02/11 09:52:27;;;;;;;60.38;4.25;;;;;;;;;;5095215;28;20263;-72
2022/02/11 09:55:31;;;;;;;61.42;3.88;;;;;;;;;;5094443;28;20230;-71
2022/02/11 09:57:42;;;;;;;62.45;4.32;;;;;;;;;;5094233;28;20687;-72
2022/02/11 10:00:10;;;;;;;64.75;4.53;;;;;;;;;;5094555;28;20216;-72
2022/02/11 10:02:50;;;;;;;66.65;4.95;;;;;;;;;;5093973;28;20207;-71
2022/02/11 10:05:21;;;;;;;59.10;4.00;;;;;;;;;;5094316;28;20311;-72
2022/02/11 10:07:48;;;;;;;60.95;4.30;;;;;;;;;;5094361;28;20617;-72
2022/02/11 10:10:18;;;;;;;65.65;3.85;;;;;;;;;;5094293;28;20300;-72
2022/02/11 10:12:45;;;;;;;59.55;3.97;;;;;;;;;;5094296;28;20291;-72
2022/02/11 10:15:19;;;;;;;61.53;3.88;;;;;;;;;;5094143;28;20228;-72
2022/02/11 10:17:46;;;;;;;61.05;4.35;;;;;;;;;;5093809;28;20291;-72
2022/02/11 10:20:15;;;;;;;61.00;4.00;;;;;;;;;;5094091;28;20646;-72
2022/02/11 10:22:42;;;;;;;63.63;4.40;;;;;;;;;;5094345;28;20450;-73
2022/02/11 10:25:09;;;;;;;62.40;4.67;;;;;;;;;;5094098;28;20566;-73
2022/02/11 10:27:37;;;;;;;61.57;4.10;;;;;;;;;;5093914;28;20452;-73
2022/02/11 10:30:06;;;;;;;64.00;4.10;;;;;;;;;;5093811;28;20462;-73
2022/02/11 10:32:39;;;;;;;59.30;3.70;;;;;;;;;;5093636;28;20524;-73
2022/02/11 10:35:09;;;;;;;65.60;4.27;;;;;;;;;;5094002;28;20556;-73
2022/02/11 10:37:58;;;;;;;61.87;3.80;;;;;;;;;;5093539;28;20447;-72
2022/02/11 10:40:30;;;;;;;60.97;4.00;;;;;;;;;;5093668;28;20456;-72
2022/02/11 10:42:57;;;;;;;62.60;4.30;;;;;;;;;;5093505;28;20439;-72
2022/02/11 10:45:28;;;;;;;60.53;4.60;;;;;;;;;;5094028;28;20459;-72
2022/02/11 10:48:11;;;;;;;60.15;3.97;;;;;;;;;;5093548;28;20956;-72
2022/02/11 10:50:39;;;;;;;65.63;4.13;;;;;;;;;;5093616;28;20209;-72
2022/02/11 10:53:08;;;;;;;61.07;4.13;;;;;;;;;;5093369;28;20515;-72
2022/02/11 10:55:47;;;;;;;60.03;4.05;;;;;;;;;;5093718;28;20525;-72
2022/02/11 10:58:16;;;;;;;60.00;3.80;;;;;;;;;;5093178;28;20201;-72
2022/02/11 11:00:43;;;;;;;62.17;4.30;;;;;;;;;;5093304;28;20682;-73
2022/02/11 11:03:11;;;;;;;63.15;4.88;;;;;;;;;;5093270;28;20818;-73
2022/02/11 11:05:38;;;;;;;61.90;4.57;;;;;;;;;;5093183;28;20360;-73
2022/02/11 11:08:06;;;;;;;59.40;4.13;;;;;;;;;;5093189;28;20450;-73
2022/02/11 11:10:34;;;;;;;63.28;4.50;;;;;;;;;;5093185;28;20932;-73
2022/02/11 11:13:02;;;;;;;61.57;3.93;;;;;;;;;;5092605;28;20222;-73
2022/02/11 11:15:29;;;;;;;63.28;4.45;;;;;;;;;;5092787;28;20943;-73
2022/02/11 11:17:57;;;;;;;64.30;4.90;;;;;;;;;;5092859;28;20678;-73
2022/02/11 11:20:26;;;;;;;60.80;4.70;;;;;;;;;;5092845;28;20206;-73
2022/02/11 11:22:56;;;;;;;59.20;3.90;;;;;;;;;;5093080;28;20474;-73
2022/02/11 11:25:23;;;;;;;61.30;4.80;;;;;;;;;;5092839;28;21019;-73
2022/02/11 11:27:52;;;;;;;59.42;3.92;;;;;;;;;;5092690;28;20831;-73
2022/02/11 11:30:24;;;;;;;60.33;4.40;;;;;;;;;;5092749;28;20213;-73
2022/02/11 11:33:10;;;;;;;64.67;5.10;;;;;;;;;;5092619;28;20558;-71
2022/02/11 11:35:38;;;;;;;63.28;4.72;;;;;;;;;;5092619;28;20451;-71
2022/02/11 11:38:12;;;;;;;66.57;4.90;;;;;;;;;;5092462;28;20211;-70
2022/02/11 11:40:39;;;;;;;63.78;4.78;;;;;;;;;;5092708;28;20237;-70
2022/02/11 11:43:14;;;;;;;61.35;4.15;;;;;;;;;;5092363;28;20257;-70
2022/02/11 11:45:43;;;;;;;59.83;4.75;;;;;;;;;;5092583;28;20246;-70
2022/02/11 11:48:14;;;;;;;61.25;4.40;;;;;;;;;;5092557;28;20213;-70
2022/02/11 11:50:41;;;;;;;59.10;3.67;;;;;;;;;;5092624;28;20685;-71
2022/02/11 11:53:25;;;;;;;60.10;4.23;;;;;;;;;;5092252;28;20581;-71
2022/02/11 11:55:52;;;;;;;60.55;3.45;;;;;;;;;;5092274;28;20520;-71
2022/02/11 11:58:33;;;;;;;59.80;3.50;;;;;;;;;;5091997;28;20207;-71
2022/02/11 12:01:01;;;;;;;63.50;4.27;;;;;;;;;;5092489;28;20462;-71
2022/02/11 12:03:28;;;;;;;61.53;4.50;;;;;;;;;;5092163;28;20813;-71
2022/02/11 12:05:59;;;;;;;61.37;3.80;;;;;;;;;;5092222;28;20454;-71
2022/02/11 12:08:29;;;;;;;62.10;4.57;;;;;;;;;;5091912;28;20498;-71
2022/02/11 12:10:57;;;;;;;59.75;4.10;;;;;;;;;;5092434;28;20556;-71
2022/02/11 12:13:25;;;;;;;64.87;4.00;;;;;;;;;;5091997;28;20233;-71
2022/02/11 12:15:53;;;;;;;60.20;4.25;;;;;;;;;;5092182;28;20773;-71
2022/02/11 12:18:21;;;;;;;62.15;3.80;;;;;;;;;;5091693;28;20240;-70
2022/02/11 12:20:48;;;;;;;62.65;3.63;;;;;;;;;;5091955;28;20210;-71
2022/02/11 12:28:59;;;;;;;59.03;3.30;;;;;;;;;;5029163;28;20211;-70
2022/02/11 12:31:29;;;;;;;60.10;3.50;;;;;;;;;;5029607;28;20642;-70
2022/02/11 12:34:11;;;;;;;60.28;3.85;;;;;;;;;;5057420;28;20784;-70
2022/02/11 12:36:38;;;;;;;61.35;3.80;;;;;;;;;;5092021;28;20216;-70
2022/02/11 12:39:06;;;;;;;61.00;3.75;;;;;;;;;;5091099;28;20213;-70
2022/02/11 12:41:46;;;;;;;59.90;3.63;;;;;;;;;;5091246;28;20440;-70
2022/02/11 12:44:23;;;;;;;62.10;4.13;;;;;;;;;;5091191;28;20226;-70
2022/02/11 12:46:53;;;;;;;64.95;4.35;;;;;;;;;;5090779;28;20211;-71
2022/02/11 12:49:21;;;;;;;61.30;4.30;;;;;;;;;;5090903;28;20210;-71
2022/02/11 12:51:51;;;;;;;61.28;4.47;;;;;;;;;;5090827;28;20292;-70
2022/02/11 12:54:19;;;;;;;60.08;4.28;;;;;;;;;;5091405;28;20231;-71
2022/02/11 12:56:46;;;;;;;62.17;4.32;;;;;;;;;;5091771;28;20298;-70
2022/02/11 12:59:14;;;;;;;59.70;3.97;;;;;;;;;;5091511;28;20209;-71
2022/02/11 13:01:41;;;;;;;62.35;4.00;;;;;;;;;;5091703;28;20246;-71
2022/02/11 13:04:18;;;;;;;62.53;3.80;;;;;;;;;;5091594;28;20230;-71
2022/02/11 13:06:45;;;;;;;59.40;3.65;;;;;;;;;;5091534;28;20295;-71
2022/02/11 13:09:13;;;;;;;63.13;4.35;;;;;;;;;;5091524;28;20207;-71
2022/02/11 13:11:41;;;;;;;61.92;4.40;;;;;;;;;;5091673;28;20604;-71
2022/02/11 13:14:09;;;;;;;66.38;4.57;;;;;;;;;;5091315;28;20774;-71
2022/02/11 13:16:38;;;;;;;61.72;4.18;;;;;;;;;;5091505;28;20293;-71
2022/02/11 13:19:16;;;;;;;61.13;4.35;;;;;;;;;;5091115;28;20298;-71
2022/02/11 13:21:44;;;;;;;61.50;3.67;;;;;;;;;;5091746;28;20206;-71
2022/02/11 13:24:11;;;;;;;59.47;3.80;;;;;;;;;;5091415;28;20595;-71
2022/02/11 13:26:39;;;;;;;61.10;3.63;;;;;;;;;;5091443;28;20455;-71
2022/02/11 13:29:12;;;;;;;63.67;4.10;;;;;;;;;;5090946;28;20458;-71
2022/02/11 13:31:46;;;;;;;61.53;4.37;;;;;;;;;;5091290;28;20447;-71
2022/02/11 13:34:13;;;;;;;59.30;4.03;;;;;;;;;;5091252;28;20493;-71
2022/02/11 13:36:47;;;;;;;61.40;3.80;;;;;;;;;;5091645;28;20450;-71
2022/02/11 13:39:26;;;;;;;64.63;4.17;;;;;;;;;;5072745;28;20975;-69
2022/02/11 13:41:53;;;;;;;69.20;4.80;;;;;;;;;;5073135;28;20955;-71
2022/02/11 13:44:21;;;;;;;60.43;3.60;;;;;;;;;;5073176;28;20817;-71
2022/02/11 13:46:51;;;;;;;60.47;4.13;;;;;;;;;;5073925;28;20447;-70
2022/02/11 13:49:18;;;;;;;62.33;3.73;;;;;;;;;;5073570;28;20983;-70
2022/02/11 13:53:01;;;;;;;59.60;3.83;;;;;;;;;;5074461;28;20498;-70
2022/02/11 13:54:34;;;;;;;61.90;3.70;;;;;;;;;;5073402;28;20451;-69
2022/02/11 13:57:01;;;;;;;59.40;4.03;;;;;;;;;;5074230;28;20453;-71
2022/02/11 13:59:30;;;;;;;59.37;3.30;;;;;;;;;;5086503;28;20499;-70
2022/02/11 14:02:04;;;;;;;58.83;3.67;;;;;;;;;;5094752;28;20450;-70
2022/02/11 14:04:33;;;;;;;58.77;3.37;;;;;;;;;;5094341;28;20552;-70
2022/02/11 14:07:02;;;;;;;59.47;3.73;;;;;;;;;;5094284;28;20537;-70
2022/02/11 14:09:32;;;;;;;60.00;4.13;;;;;;;;;;5094032;28;20858;-70
2022/02/11 14:11:59;;;;;;;61.90;3.20;;;;;;;;;;5094411;28;20544;-70
2022/02/11 14:14:26;;;;;;;62.00;3.43;;;;;;;;;;5093527;28;21091;-70
2022/02/11 14:16:55;;;;;;;60.60;3.50;;;;;;;;;;5094336;28;20452;-70
2022/02/11 14:19:24;;;;;;;59.20;3.50;;;;;;;;;;5093963;28;20457;-69
2022/02/11 14:21:51;;;;;;;58.77;3.30;;;;;;;;;;5094595;28;20440;-70
2022/02/11 14:24:21;;;;;;;62.40;3.60;;;;;;;;;;5094152;28;20469;-69
2022/02/11 14:26:48;;;;;;;60.60;3.97;;;;;;;;;;5094124;28;20442;-69
2022/02/11 14:29:15;;;;;;;59.57;3.63;;;;;;;;;;5093453;28;20549;-69
2022/02/11 14:31:43;;;;;;;61.33;3.70;;;;;;;;;;5091710;28;20454;-69
2022/02/11 14:34:10;;;;;;;65.17;4.30;;;;;;;;;;5093013;28;20506;-69
2022/02/11 14:36:39;;;;;;;59.07;3.70;;;;;;;;;;5094353;28;20553;-69
2022/02/11 14:39:06;;;;;;;58.90;3.77;;;;;;;;;;5094149;28;20762;-69
2022/02/11 14:41:49;;;;;;;61.07;4.60;;;;;;;;;;5094590;28;20539;-70
2022/02/11 14:44:17;;;;;;;61.50;4.97;;;;;;;;;;5094107;28;20984;-69
2022/02/11 14:46:44;;;;;;;59.37;4.27;;;;;;;;;;5093837;28;20459;-69
2022/02/11 14:49:12;;;;;;;63.37;3.83;;;;;;;;;;5094022;28;21035;-69
2022/02/11 14:51:39;;;;;;;59.37;3.87;;;;;;;;;;5093663;28;20454;-69
2022/02/11 14:54:08;;;;;;;62.28;3.70;;;;;;;;;;5093960;28;20496;-69
2022/02/11 14:56:37;;;;;;;60.60;3.70;;;;;;;;;;5094448;28;20216;-69
2022/02/11 14:59:06;;;;;;;60.30;3.90;;;;;;;;;;5094154;28;20453;-69
2022/02/11 15:01:33;;;;;;;59.75;3.60;;;;;;;;;;5094973;28;20212;-69
2022/02/11 15:04:00;;;;;;;61.30;3.40;;;;;;;;;;5075282;28;20235;-70
2022/02/11 15:06:28;;;;;;;60.20;3.47;;;;;;;;;;5073892;28;20539;-70
2022/02/11 15:08:55;;;;;;;59.70;3.70;;;;;;;;;;5073394;28;20828;-69
2022/02/11 15:11:22;;;;;;;60.70;3.60;;;;;;;;;;5073015;28;20995;-69
2022/02/11 15:13:50;;;;;;;59.22;3.60;;;;;;;;;;5072847;28;20316;-69
2022/02/11 15:16:17;;;;;;;61.22;3.65;;;;;;;;;;5072748;28;20207;-69
2022/02/11 15:18:46;;;;;;;59.37;3.40;;;;;;;;;;5073177;28;20206;-69
2022/02/11 15:21:13;;;;;;;61.55;4.05;;;;;;;;;;5073291;28;20554;-69
2022/02/11 15:23:41;;;;;;;59.53;3.40;;;;;;;;;;5073148;28;20782;-69
2022/02/11 15:26:09;;;;;;;60.08;3.70;;;;;;;;;;5073149;28;20213;-69
2022/02/11 15:28:37;;;;;;;59.92;3.50;;;;;;;;;;5072767;28;20229;-69
2022/02/11 15:31:08;;;;;;;60.00;3.75;;;;;;;;;;5073157;28;20595;-69
2022/02/11 15:33:35;;;;;;;66.27;3.77;;;;;;;;;;5072874;28;20233;-69
2022/02/11 15:36:02;;;;;;;67.93;4.40;;;;;;;;;;5090127;28;20455;-70
2022/02/11 15:38:30;;;;;;;62.05;3.85;;;;;;;;;;5093151;28;20649;-70
2022/02/11 15:40:57;;;;;;;61.60;4.28;;;;;;;;;;5093576;28;20200;-70
2022/02/11 15:43:24;;;;;;;59.55;4.15;;;;;;;;;;5093335;28;20220;-70
2022/02/11 15:45:52;;;;;;;61.53;4.32;;;;;;;;;;5093358;28;20212;-70
2022/02/11 15:48:20;;;;;;;62.53;4.25;;;;;;;;;;5092706;28;20215;-70
2022/02/11 15:50:47;;;;;;;66.70;3.83;;;;;;;;;;5093379;28;20285;-70
2022/02/11 15:53:15;;;;;;;62.70;3.45;;;;;;;;;;5092394;28;20229;-70
2022/02/11 15:55:43;;;;;;;59.50;3.88;;;;;;;;;;5093044;28;20295;-69
2022/02/11 15:58:10;;;;;;;60.45;3.95;;;;;;;;;;5092908;28;20204;-70
2022/02/11 16:00:38;;;;;;;59.60;4.05;;;;;;;;;;5092878;28;20211;-70
2022/02/11 16:03:05;;;;;;;61.80;4.20;;;;;;;;;;5092750;28;20208;-70
2022/02/11 16:05:34;;;;;;;59.83;3.97;;;;;;;;;;5090626;28;20300;-70
2022/02/11 16:08:01;;;;;;;63.60;4.22;;;;;;;;;;5092227;28;20208;-71
2022/02/11 16:10:29;;;;;;;60.10;3.70;;;;;;;;;;5092677;28;20208;-70
2022/02/11 16:12:57;;;;;;;74.03;5.55;;;;;;;;;;5093034;28;20209;-71
2022/02/11 16:15:26;;;;;;;64.38;4.78;;;;;;;;;;5092950;28;20301;-70
2022/02/11 16:18:03;;;;;;;63.03;5.07;;;;;;;;;;5092113;28;20249;-70
2022/02/11 16:20:31;;;;;;;65.55;5.10;;;;;;;;;;5091931;28;20302;-71
2022/02/11 16:23:00;;;;;;;62.45;4.35;;;;;;;;;;5091914;28;20660;-70
2022/02/11 16:25:27;;;;;;;61.25;4.93;;;;;;;;;;5091930;28;20677;-70
2022/02/11 16:27:54;;;;;;;64.15;4.80;;;;;;;;;;5091729;28;20200;-70
2022/02/11 16:30:22;;;;;;;64.65;4.50;;;;;;;;;;5092439;28;20223;-70
2022/02/11 16:32:49;;;;;;;61.42;5.13;;;;;;;;;;5091154;28;20249;-70
2022/02/11 16:35:16;;;;;;;64.55;5.05;;;;;;;;;;5091605;28;20228;-70
2022/02/11 16:37:43;;;;;;;68.00;5.85;;;;;;;;;;5084134;28;20205;-70
2022/02/11 16:40:12;;;;;;;62.83;5.25;;;;;;;;;;5071862;28;20293;-70
2022/02/11 16:42:40;;;;;;;61.05;5.53;;;;;;;;;;5071883;28;20639;-70
2022/02/11 16:45:09;;;;;;;65.90;5.35;;;;;;;;;;5072595;28;20501;-70
2022/02/11 16:47:36;;;;;;;64.55;5.35;;;;;;;;;;5100716;28;20232;-69
2022/02/11 16:50:04;;;;;;;60.53;5.38;;;;;;;;;;5115335;28;20192;-71
2022/02/11 16:52:33;;;;;;;60.92;5.00;;;;;;;;;;5114165;28;20294;-72
2022/02/11 16:55:00;;;;;;;66.78;7.65;;;;;;;;;;5113612;28;20263;-68
2022/02/11 16:57:29;;;;;;;73.03;8.63;;;;;;;;;;5113551;28;20218;-69
2022/02/11 16:59:56;;;;;;;66.47;7.47;;;;;;;;;;5113744;28;20192;-68
2022/02/11 17:02:24;;;;;;;68.35;7.65;;;;;;;;;;5114853;28;20302;-68
2022/02/11 17:04:52;;;;;;;67.53;7.05;;;;;;;;;;5091787;28;20303;-68
2022/02/11 17:07:19;;;;;;;60.72;5.57;;;;;;;;;;5091452;28;20295;-67
2022/02/11 17:09:46;;;;;;;69.32;5.65;;;;;;;;;;5091823;28;20208;-68
2022/02/11 17:12:14;;;;;;;62.10;6.30;;;;;;;;;;5092637;28;20219;-68
2022/02/11 17:14:43;;;;;;;61.92;5.15;;;;;;;;;;5094944;28;20224;-68
2022/02/11 17:17:10;;;;;;;62.30;5.65;;;;;;;;;;5094814;28;20200;-68
2022/02/11 17:19:37;;;;;;;62.08;5.13;;;;;;;;;;5095432;28;20294;-68
2022/02/11 17:22:05;;;;;;;61.65;5.07;;;;;;;;;;5095306;28;20291;-69
2022/02/11 17:24:32;;;;;;;62.30;5.55;;;;;;;;;;5095121;28;20247;-69
2022/02/11 17:26:59;;;;;;;65.97;6.47;;;;;;;;;;5095361;28;20215;-68
2022/02/11 17:29:27;;;;;;;61.83;6.15;;;;;;;;;;5094708;28;20703;-69
2022/02/11 17:31:55;;;;;;;64.35;6.20;;;;;;;;;;5095103;28;20208;-68
2022/02/11 17:34:22;;;;;;;67.32;6.35;;;;;;;;;;5094521;28;20694;-69
2022/02/11 17:36:49;;;;;;;64.50;6.32;;;;;;;;;;5094500;28;20668;-68
2022/02/11 17:39:17;;;;;;;63.00;5.30;;;;;;;;;;5095287;28;20204;-69
2022/02/11 17:41:44;;;;;;;63.63;6.65;;;;;;;;;;5094748;28;20312;-68
2022/02/11 17:44:11;;;;;;;65.53;6.05;;;;;;;;;;5094835;28;20220;-69
2022/02/11 17:46:38;;;;;;;64.93;6.00;;;;;;;;;;5094843;28;20200;-70
2022/02/11 17:49:06;;;;;;;63.72;6.55;;;;;;;;;;5092202;28;20594;-70
2022/02/11 17:51:34;;;;;;;73.68;9.43;;;;;;;;;;5074360;28;20258;-70
2022/02/11 17:54:01;;;;;;;69.03;8.07;;;;;;;;;;5073518;28;20693;-69
2022/02/11 17:56:28;;;;;;;62.55;6.88;;;;;;;;;;5073967;28;20215;-70
2022/02/11 17:58:55;;;;;;;63.22;7.32;;;;;;;;;;5074058;28;20704;-70